Time;durP1;ratioP1;P1;durP2;ratioP2;P2;SDS_P1;SDS_P2;PMS_P1;PMS_P2;Temp;Humidity;BMP_temperature;BMP_pressure;BME280_temperature;BME280_humidity;BME280_pressure;Samples;Min_cycle;Max_cycle;Signal;HPM_P1;HPM_P2
2021/09/23 00:00:06;;;;;;;6.73;3.70;;;10.20;99.90;;;;;;5033574;28;20317;-63
2021/09/23 00:02:48;;;;;;;7.30;4.20;;;10.30;99.90;;;;;;5033710;28;20213;-63
2021/09/23 00:05:17;;;;;;;6.17;3.70;;;10.30;99.90;;;;;;5033944;28;20214;-63
2021/09/23 00:07:47;;;;;;;5.67;4.13;;;10.30;99.90;;;;;;5033643;28;20214;-61
2021/09/23 00:10:16;;;;;;;5.60;4.17;;;10.20;99.90;;;;;;5033517;28;20234;-62
2021/09/23 00:12:43;;;;;;;4.70;3.70;;;10.10;99.90;;;;;;5033674;28;20698;-63
2021/09/23 00:15:13;;;;;;;4.50;4.03;;;10.10;99.90;;;;;;5033192;28;20268;-63
2021/09/23 00:17:41;;;;;;;15.40;4.40;;;10.10;99.90;;;;;;5033552;28;20636;-62
2021/09/23 00:20:09;;;;;;;4.90;4.17;;;10.20;99.90;;;;;;5033423;28;20230;-63
2021/09/23 00:22:35;;;;;;;8.43;4.33;;;10.20;99.90;;;;;;5033559;28;20206;-64
2021/09/23 00:25:03;;;;;;;5.47;4.57;;;10.30;99.90;;;;;;5033241;28;20206;-64
2021/09/23 00:27:30;;;;;;;6.10;4.20;;;10.30;99.90;;;;;;5033269;28;20214;-63
2021/09/23 00:29:57;;;;;;;7.23;3.83;;;10.30;99.90;;;;;;5033341;28;20219;-63
2021/09/23 00:32:23;;;;;;;10.00;4.57;;;10.20;99.90;;;;;;5033283;28;20206;-64
2021/09/23 00:34:50;;;;;;;5.23;4.20;;;10.10;99.90;;;;;;5032990;28;20484;-61
2021/09/23 00:37:17;;;;;;;4.57;4.07;;;10.00;99.90;;;;;;5033172;28;20210;-61
2021/09/23 00:39:44;;;;;;;4.13;3.67;;;9.80;99.90;;;;;;5032855;28;20233;-62
2021/09/23 00:42:12;;;;;;;5.07;3.63;;;9.80;99.90;;;;;;5032991;28;20636;-62
2021/09/23 00:44:39;;;;;;;6.90;4.40;;;9.70;99.90;;;;;;5033128;28;20280;-62
2021/09/23 00:47:08;;;;;;;5.23;3.83;;;9.80;99.90;;;;;;5033196;28;20202;-61
2021/09/23 00:49:35;;;;;;;10.23;3.90;;;9.90;99.90;;;;;;5032615;28;20276;-61
2021/09/23 00:52:02;;;;;;;5.47;3.90;;;10.00;99.90;;;;;;5032311;28;20202;-63
2021/09/23 00:54:28;;;;;;;6.13;4.27;;;10.00;99.90;;;;;;5032040;28;20206;-63
2021/09/23 00:56:55;;;;;;;5.57;3.60;;;10.10;99.90;;;;;;5032550;28;20206;-63
2021/09/23 00:59:23;;;;;;;4.73;4.27;;;10.10;99.90;;;;;;5032756;28;20233;-64
2021/09/23 01:01:50;;;;;;;8.03;3.60;;;10.10;99.90;;;;;;5032737;28;20222;-62
2021/09/23 01:04:16;;;;;;;6.93;3.70;;;10.20;99.90;;;;;;5032565;28;20210;-63
2021/09/23 01:06:44;;;;;;;9.97;4.03;;;10.20;99.90;;;;;;5032732;28;20206;-64
2021/09/23 01:09:11;;;;;;;5.70;3.73;;;10.20;99.90;;;;;;5031988;28;20304;-61
2021/09/23 01:11:38;;;;;;;5.63;3.93;;;10.30;99.90;;;;;;5032843;28;20257;-61
2021/09/23 01:14:05;;;;;;;5.53;3.93;;;10.30;99.90;;;;;;5032696;28;20522;-62
2021/09/23 01:16:33;;;;;;;8.50;4.20;;;10.40;99.90;;;;;;5032337;28;20202;-62
2021/09/23 01:19:00;;;;;;;5.03;4.17;;;10.50;99.90;;;;;;5032354;28;20231;-62
2021/09/23 01:21:28;;;;;;;7.10;3.80;;;10.50;99.90;;;;;;5032469;28;20218;-61
2021/09/23 01:23:55;;;;;;;6.33;3.67;;;10.40;99.90;;;;;;5032087;28;20206;-61
2021/09/23 01:26:26;;;;;;;5.37;3.80;;;10.40;99.90;;;;;;5032377;28;20214;-62
2021/09/23 01:28:53;;;;;;;5.47;3.77;;;10.50;99.90;;;;;;5031882;28;20222;-61
2021/09/23 01:31:20;;;;;;;4.20;3.50;;;10.50;99.90;;;;;;5032389;28;20202;-62
2021/09/23 01:33:47;;;;;;;4.93;3.70;;;10.50;99.90;;;;;;5031723;28;20214;-62
2021/09/23 01:36:14;;;;;;;4.60;3.60;;;10.50;99.90;;;;;;5031839;28;20229;-61
2021/09/23 01:38:42;;;;;;;6.77;3.80;;;10.40;99.90;;;;;;5031756;28;20230;-63
2021/09/23 01:41:09;;;;;;;5.60;3.83;;;10.40;99.90;;;;;;5031974;28;20706;-62
2021/09/23 01:43:35;;;;;;;6.67;3.80;;;10.30;99.90;;;;;;5032046;28;20233;-62
2021/09/23 01:46:02;;;;;;;6.77;3.90;;;10.30;99.90;;;;;;5032331;28;20214;-62
2021/09/23 01:48:29;;;;;;;4.80;3.80;;;10.20;99.90;;;;;;5031774;28;20222;-63
2021/09/23 01:50:55;;;;;;;3.97;3.53;;;10.20;99.90;;;;;;5031842;28;20203;-62
2021/09/23 01:53:22;;;;;;;4.03;3.60;;;10.20;99.90;;;;;;5031673;28;20683;-62
2021/09/23 01:55:50;;;;;;;5.33;3.90;;;10.20;99.90;;;;;;5031462;28;20627;-62
2021/09/23 01:58:17;;;;;;;7.60;4.10;;;10.20;99.90;;;;;;5031365;28;20210;-62
2021/09/23 02:00:43;;;;;;;3.90;3.40;;;10.20;99.90;;;;;;5031427;28;20226;-62
2021/09/23 02:03:10;;;;;;;4.40;3.70;;;10.10;99.90;;;;;;5031434;28;20209;-61
2021/09/23 02:05:37;;;;;;;4.63;3.50;;;10.00;99.90;;;;;;5031022;28;20210;-63
2021/09/23 02:08:04;;;;;;;4.00;3.60;;;10.00;99.90;;;;;;5031357;28;20216;-62
2021/09/23 02:10:31;;;;;;;5.90;3.80;;;9.90;99.90;;;;;;5030939;28;20230;-64
2021/09/23 02:12:59;;;;;;;8.27;4.20;;;9.90;99.90;;;;;;5031369;28;20213;-62
2021/09/23 02:15:26;;;;;;;6.00;3.80;;;9.90;99.90;;;;;;5031054;28;20206;-62
2021/09/23 02:17:53;;;;;;;5.23;3.50;;;9.80;99.90;;;;;;5030837;28;20682;-62
2021/09/23 02:20:20;;;;;;;4.53;3.37;;;9.80;99.90;;;;;;5031222;28;20640;-61
2021/09/23 02:22:46;;;;;;;3.80;3.40;;;9.70;99.90;;;;;;5031168;28;20213;-60
2021/09/23 02:25:13;;;;;;;5.67;3.70;;;9.60;99.90;;;;;;5030776;28;20210;-62
2021/09/23 02:27:40;;;;;;;7.13;4.03;;;9.60;99.90;;;;;;5031589;28;20217;-61
2021/09/23 02:30:10;;;;;;;4.63;3.80;;;9.50;99.90;;;;;;5031241;28;20229;-62
2021/09/23 02:32:37;;;;;;;10.50;4.63;;;9.50;99.90;;;;;;5030774;28;20206;-61
2021/09/23 02:35:04;;;;;;;6.10;4.67;;;9.60;99.90;;;;;;5030731;28;20692;-62
2021/09/23 02:37:31;;;;;;;8.80;4.27;;;9.60;99.90;;;;;;5030878;28;20202;-61
2021/09/23 02:39:58;;;;;;;6.50;4.67;;;9.60;99.90;;;;;;5030811;28;20234;-62
2021/09/23 02:42:24;;;;;;;7.83;4.60;;;9.60;99.90;;;;;;5030943;28;20222;-62
2021/09/23 02:44:51;;;;;;;6.00;3.70;;;9.60;99.90;;;;;;5030785;28;20209;-62
2021/09/23 02:47:22;;;;;;;6.33;3.97;;;9.60;99.90;;;;;;5031041;28;20206;-62
2021/09/23 02:49:49;;;;;;;5.87;3.53;;;9.50;99.90;;;;;;5030885;28;20230;-61
2021/09/23 02:52:16;;;;;;;4.03;3.50;;;9.50;99.90;;;;;;5030887;28;20206;-62
2021/09/23 02:54:43;;;;;;;4.20;3.43;;;9.40;99.90;;;;;;5030653;28;20210;-61
2021/09/23 02:57:10;;;;;;;4.53;3.43;;;9.30;99.90;;;;;;5030682;28;20585;-62
2021/09/23 02:59:37;;;;;;;5.63;3.93;;;9.30;99.90;;;;;;5031122;28;20226;-63
2021/09/23 03:02:03;;;;;;;5.53;4.00;;;9.30;99.90;;;;;;5030851;28;20230;-63
2021/09/23 03:04:31;;;;;;;5.77;3.77;;;9.20;99.90;;;;;;5030795;28;20236;-63
2021/09/23 03:06:58;;;;;;;7.20;4.10;;;9.20;99.90;;;;;;5030878;28;20209;-62
2021/09/23 03:09:25;;;;;;;5.20;4.33;;;9.10;99.90;;;;;;5030452;28;20233;-62
2021/09/23 03:11:51;;;;;;;5.27;4.20;;;9.10;99.90;;;;;;5030692;28;20209;-61
2021/09/23 03:14:18;;;;;;;6.87;4.03;;;9.20;99.90;;;;;;5030847;28;20793;-62
2021/09/23 03:16:45;;;;;;;6.03;4.00;;;9.20;99.90;;;;;;5034292;28;20210;-62
2021/09/23 03:19:11;;;;;;;5.83;3.90;;;9.20;99.90;;;;;;5035132;28;20230;-61
2021/09/23 03:21:39;;;;;;;5.97;3.77;;;9.20;99.90;;;;;;5034596;28;20225;-63
2021/09/23 03:24:06;;;;;;;4.70;4.10;;;9.10;99.90;;;;;;5034480;28;20712;-62
2021/09/23 03:26:33;;;;;;;5.73;4.30;;;9.00;99.90;;;;;;5034390;28;20239;-62
2021/09/23 03:29:00;;;;;;;6.47;4.13;;;8.90;99.90;;;;;;5034240;28;20226;-62
2021/09/23 03:31:27;;;;;;;4.50;3.70;;;8.90;99.90;;;;;;5034395;28;20209;-62
2021/09/23 03:33:53;;;;;;;8.63;4.27;;;9.00;99.90;;;;;;5034289;28;20442;-62
2021/09/23 03:36:21;;;;;;;5.00;3.67;;;8.90;99.90;;;;;;5034190;28;20264;-63
2021/09/23 03:38:51;;;;;;;6.23;3.83;;;8.90;99.90;;;;;;5034007;28;20222;-61
2021/09/23 03:41:17;;;;;;;5.93;4.33;;;8.90;99.90;;;;;;5033913;28;20763;-63
2021/09/23 03:43:44;;;;;;;7.17;4.43;;;8.90;99.90;;;;;;5033931;28;20202;-63
2021/09/23 03:46:11;;;;;;;7.80;4.27;;;8.90;99.90;;;;;;5034313;28;20635;-62
2021/09/23 03:48:37;;;;;;;5.30;4.60;;;8.90;99.90;;;;;;5033918;28;20226;-62
2021/09/23 03:51:04;;;;;;;8.67;5.00;;;8.90;99.90;;;;;;5034023;28;20203;-62
2021/09/23 03:53:31;;;;;;;8.77;4.67;;;8.90;99.90;;;;;;5033919;28;20206;-63
2021/09/23 03:55:59;;;;;;;5.87;4.40;;;8.80;99.90;;;;;;5033966;28;20218;-62
2021/09/23 03:58:26;;;;;;;6.47;4.27;;;8.80;99.90;;;;;;5033842;28;20215;-62
2021/09/23 04:00:53;;;;;;;9.93;6.70;;;8.70;99.90;;;;;;5034047;28;20214;-62
2021/09/23 04:03:19;;;;;;;9.97;6.30;;;8.70;99.90;;;;;;5033855;28;20210;-63
2021/09/23 04:05:46;;;;;;;8.30;6.10;;;8.70;99.90;;;;;;5033550;28;20210;-62
2021/09/23 04:08:12;;;;;;;10.57;5.57;;;8.70;99.90;;;;;;5033294;28;20210;-63
2021/09/23 04:10:39;;;;;;;9.40;6.77;;;8.80;99.90;;;;;;5047635;22;20597;-63
2021/09/23 04:13:07;;;;;;;7.57;5.47;;;8.80;99.90;;;;;;5033811;28;20198;-62
2021/09/23 04:15:34;;;;;;;5.97;5.00;;;8.80;99.90;;;;;;5033648;28;20206;-63
2021/09/23 04:18:01;;;;;;;9.60;5.10;;;8.80;99.90;;;;;;5033492;28;20203;-63
2021/09/23 04:20:27;;;;;;;7.43;6.00;;;8.80;99.90;;;;;;5033373;28;20244;-63
2021/09/23 04:22:54;;;;;;;9.27;7.33;;;8.80;99.90;;;;;;5032992;28;20280;-63
2021/09/23 04:25:21;;;;;;;8.93;8.03;;;8.80;99.90;;;;;;5033193;28;20209;-63
2021/09/23 04:27:47;;;;;;;5.90;5.30;;;8.80;99.90;;;;;;5033166;28;20214;-63
2021/09/23 04:30:16;;;;;;;8.20;5.33;;;8.80;99.90;;;;;;5033082;28;20237;-63
2021/09/23 04:32:42;;;;;;;8.07;5.73;;;8.90;99.90;;;;;;5033135;28;20641;-63
2021/09/23 04:35:10;;;;;;;7.73;5.43;;;8.90;99.90;;;;;;5032772;28;20209;-63
2021/09/23 04:37:36;;;;;;;7.03;5.20;;;8.90;99.90;;;;;;5032769;28;20215;-63
2021/09/23 04:40:04;;;;;;;5.97;4.90;;;8.90;99.90;;;;;;5033037;28;20270;-64
2021/09/23 04:42:31;;;;;;;6.53;5.10;;;8.90;99.90;;;;;;5032794;28;20272;-64
2021/09/23 04:44:57;;;;;;;7.53;4.70;;;8.90;99.90;;;;;;5032607;28;20210;-64
2021/09/23 04:47:25;;;;;;;10.30;5.57;;;8.90;99.90;;;;;;5032667;28;20202;-64
2021/09/23 04:49:52;;;;;;;8.83;5.00;;;8.90;99.90;;;;;;5032430;28;20223;-63
2021/09/23 04:52:19;;;;;;;8.53;4.80;;;8.90;99.90;;;;;;5032320;28;20628;-63
2021/09/23 04:54:45;;;;;;;6.43;4.93;;;8.90;99.90;;;;;;5032587;28;20210;-64
2021/09/23 04:57:12;;;;;;;10.17;6.63;;;8.90;99.90;;;;;;5032673;28;20213;-63
2021/09/23 04:59:39;;;;;;;7.87;5.40;;;8.90;99.90;;;;;;5032430;28;20269;-63
2021/09/23 05:02:05;;;;;;;11.93;5.53;;;8.90;99.90;;;;;;5032240;28;20227;-63
2021/09/23 05:04:33;;;;;;;11.37;6.10;;;8.90;99.90;;;;;;5032163;28;20210;-63
2021/09/23 05:07:00;;;;;;;8.90;5.77;;;8.90;99.90;;;;;;5031984;28;20210;-63
2021/09/23 05:09:27;;;;;;;10.13;6.03;;;8.90;99.90;;;;;;5032034;28;20234;-63
2021/09/23 05:11:53;;;;;;;9.27;5.50;;;8.90;99.90;;;;;;5032166;28;20206;-63
2021/09/23 05:14:20;;;;;;;7.63;5.17;;;8.90;99.90;;;;;;5031825;28;20696;-63
2021/09/23 05:16:46;;;;;;;7.57;5.53;;;8.90;99.90;;;;;;5031995;28;20260;-63
2021/09/23 05:19:13;;;;;;;6.93;5.30;;;8.90;99.90;;;;;;5031762;28;20226;-63
2021/09/23 05:21:42;;;;;;;9.60;5.43;;;8.90;99.90;;;;;;5032118;28;20230;-63
2021/09/23 05:24:12;;;;;;;8.00;5.53;;;9.00;99.90;;;;;;5032118;28;20651;-63
2021/09/23 05:26:39;;;;;;;10.10;5.53;;;9.00;99.90;;;;;;5032131;28;20207;-63
2021/09/23 05:29:06;;;;;;;8.70;5.40;;;9.00;99.90;;;;;;5031888;28;20226;-63
2021/09/23 05:31:32;;;;;;;10.87;5.83;;;9.10;99.90;;;;;;5031996;28;20202;-63
2021/09/23 05:34:00;;;;;;;8.90;5.30;;;9.10;99.90;;;;;;5031733;28;20252;-63
2021/09/23 05:36:27;;;;;;;7.47;5.07;;;9.10;99.90;;;;;;5031839;28;20305;-63
2021/09/23 05:38:58;;;;;;;8.57;5.13;;;9.10;99.90;;;;;;5031408;28;20257;-63
2021/09/23 05:41:25;;;;;;;14.00;5.30;;;9.20;99.90;;;;;;5032101;28;20206;-63
2021/09/23 05:43:52;;;;;;;6.93;5.00;;;9.20;99.90;;;;;;5031628;28;20800;-63
2021/09/23 05:46:18;;;;;;;12.00;5.40;;;9.20;99.90;;;;;;5031628;28;20228;-63
2021/09/23 05:48:45;;;;;;;10.97;5.00;;;9.20;99.90;;;;;;5031682;28;20583;-62
2021/09/23 05:51:12;;;;;;;6.63;5.03;;;9.20;99.90;;;;;;5031386;28;20213;-63
2021/09/23 05:53:39;;;;;;;11.10;5.47;;;9.20;99.90;;;;;;5031310;28;20574;-63
2021/09/23 05:56:07;;;;;;;8.57;5.17;;;9.30;99.90;;;;;;5031999;28;20203;-63
2021/09/23 05:58:33;;;;;;;7.77;5.03;;;9.40;99.90;;;;;;5031119;28;20271;-63
2021/09/23 06:01:00;;;;;;;6.77;5.07;;;9.40;99.90;;;;;;5031520;28;20588;-63
2021/09/23 06:03:27;;;;;;;8.37;4.70;;;9.50;99.90;;;;;;5031313;28;20233;-63
2021/09/23 06:05:53;;;;;;;7.90;4.43;;;9.50;99.90;;;;;;5031298;28;20211;-63
2021/09/23 06:08:20;;;;;;;5.27;4.63;;;9.60;99.90;;;;;;5031175;28;20206;-63
2021/09/23 06:10:47;;;;;;;5.57;4.60;;;9.70;99.90;;;;;;5031011;28;20238;-63
2021/09/23 06:13:15;;;;;;;8.27;4.80;;;9.80;99.90;;;;;;5031107;28;20202;-63
2021/09/23 06:15:41;;;;;;;6.70;4.60;;;10.00;99.90;;;;;;5031514;28;20218;-63
2021/09/23 06:18:08;;;;;;;7.77;4.30;;;10.40;99.90;;;;;;5030926;28;20206;-63
2021/09/23 06:20:37;;;;;;;8.27;3.87;;;11.40;99.90;;;;;;5030914;28;20230;-63
2021/09/23 06:23:03;;;;;;;6.40;3.40;;;12.70;99.90;;;;;;5030850;28;20627;-63
2021/09/23 06:25:30;;;;;;;4.53;3.03;;;13.90;99.90;;;;;;5030983;28;20260;-63
2021/09/23 06:27:57;;;;;;;4.13;3.33;;;14.90;99.90;;;;;;5030762;28;20202;-63
2021/09/23 06:30:25;;;;;;;5.20;2.93;;;15.90;99.90;;;;;;5031048;28;20230;-64
2021/09/23 06:32:51;;;;;;;6.13;3.00;;;16.90;99.90;;;;;;5031073;28;20198;-63
2021/09/23 06:35:18;;;;;;;5.70;3.10;;;18.10;99.90;;;;;;5030875;28;20202;-63
2021/09/23 06:37:45;;;;;;;4.45;2.78;;;19.20;99.90;;;;;;5030827;28;20268;-62
2021/09/23 06:40:13;;;;;;;7.60;3.03;;;20.40;99.90;;;;;;5030929;28;20261;-63
2021/09/23 06:42:40;;;;;;;5.00;3.15;;;21.30;99.90;;;;;;5030869;28;20226;-63
2021/09/23 06:45:08;;;;;;;4.07;2.92;;;21.80;99.90;;;;;;5030461;28;20666;-64
2021/09/23 06:47:36;;;;;;;5.80;3.53;;;22.00;99.90;;;;;;5030838;28;20207;-63
2021/09/23 06:50:03;;;;;;;3.53;2.90;;;22.40;99.90;;;;;;5030743;28;20607;-63
2021/09/23 06:52:30;;;;;;;5.47;3.50;;;22.90;99.90;;;;;;5034130;28;20575;-60
2021/09/23 06:54:57;;;;;;;5.70;2.78;;;23.50;99.90;;;;;;5036894;28;20214;-63
2021/09/23 06:57:23;;;;;;;4.25;3.00;;;24.30;99.30;;;;;;5038027;28;20206;-62
2021/09/23 06:59:50;;;;;;;5.10;3.42;;;24.90;97.90;;;;;;5036879;28;20228;-60
2021/09/23 07:02:17;;;;;;;6.07;3.38;;;25.40;95.70;;;;;;5037441;28;20218;-62
2021/09/23 07:04:45;;;;;;;5.45;2.88;;;25.80;94.40;;;;;;5036569;28;20214;-61
2021/09/23 07:07:11;;;;;;;4.68;3.00;;;26.00;93.00;;;;;;5037573;28;20265;-61
2021/09/23 07:09:38;;;;;;;9.20;3.35;;;26.10;91.70;;;;;;5037377;28;20230;-61
2021/09/23 07:12:05;;;;;;;9.40;3.45;;;26.10;91.30;;;;;;5034823;28;20206;-58
2021/09/23 07:14:32;;;;;;;7.80;3.53;;;26.30;91.10;;;;;;5034743;28;20206;-58
2021/09/23 07:16:58;;;;;;;4.28;3.20;;;26.40;90.70;;;;;;5034693;28;20697;-59
2021/09/23 07:19:25;;;;;;;5.95;3.10;;;26.60;90.20;;;;;;5034595;28;20238;-59
2021/09/23 07:21:53;;;;;;;5.18;2.97;;;26.90;88.70;;;;;;5034797;28;20206;-57
2021/09/23 07:24:20;;;;;;;4.63;2.90;;;27.20;86.40;;;;;;5034431;28;20210;-57
2021/09/23 07:26:46;;;;;;;4.38;3.25;;;27.50;85.90;;;;;;5034613;28;20268;-59
2021/09/23 07:29:15;;;;;;;5.18;2.78;;;27.80;84.30;;;;;;5034246;28;20230;-58
2021/09/23 07:31:42;;;;;;;7.85;3.28;;;28.00;82.50;;;;;;5034162;28;20689;-59
2021/09/23 07:34:09;;;;;;;4.75;3.10;;;28.30;81.60;;;;;;5034147;28;20689;-59
2021/09/23 07:36:35;;;;;;;5.15;2.53;;;28.40;80.10;;;;;;5034031;28;20571;-59
2021/09/23 07:39:06;;;;;;;4.47;2.83;;;28.50;78.60;;;;;;5033747;28;20229;-59
2021/09/23 07:41:33;;;;;;;5.50;2.92;;;28.50;77.60;;;;;;5034259;28;20217;-59
2021/09/23 07:44:00;;;;;;;5.30;2.80;;;28.10;77.90;;;;;;5034274;28;20658;-59
2021/09/23 07:46:26;;;;;;;7.75;3.60;;;27.50;79.70;;;;;;5034988;28;20624;-58
2021/09/23 07:48:53;;;;;;;11.35;3.70;;;26.30;84.00;;;;;;5033903;28;20714;-59
2021/09/23 07:51:21;;;;;;;8.02;3.50;;;25.30;86.90;;;;;;5033815;28;20211;-57
2021/09/23 07:53:47;;;;;;;6.35;3.78;;;24.20;90.00;;;;;;5033633;28;20816;-56
2021/09/23 07:56:16;;;;;;;7.22;3.40;;;23.00;91.80;;;;;;5033927;28;20211;-57
2021/09/23 07:58:43;;;;;;;12.15;3.92;;;22.00;93.70;;;;;;5033682;28;20211;-59
2021/09/23 08:01:10;;;;;;;10.50;3.90;;;21.20;95.30;;;;;;5033597;28;20612;-58
2021/09/23 08:03:36;;;;;;;7.68;3.80;;;20.40;97.10;;;;;;5033039;28;20705;-58
2021/09/23 08:06:03;;;;;;;5.40;3.80;;;19.70;98.50;;;;;;5033454;28;20237;-56
2021/09/23 08:08:30;;;;;;;8.60;3.80;;;19.10;99.90;;;;;;5033468;28;20256;-58
2021/09/23 08:10:56;;;;;;;8.35;4.05;;;18.30;99.90;;;;;;5033333;28;20745;-58
2021/09/23 08:13:24;;;;;;;7.43;4.43;;;17.80;99.90;;;;;;5033222;28;20203;-59
2021/09/23 08:15:51;;;;;;;5.15;3.80;;;17.70;99.90;;;;;;5033513;28;20206;-57
2021/09/23 08:18:19;;;;;;;7.80;4.13;;;17.70;99.90;;;;;;5033244;28;20618;-57
2021/09/23 08:20:47;;;;;;;6.53;3.50;;;17.60;99.90;;;;;;5033376;28;20230;-58
2021/09/23 08:23:13;;;;;;;5.47;3.40;;;17.40;99.90;;;;;;5033469;28;20317;-58
2021/09/23 08:25:40;;;;;;;6.95;3.20;;;17.40;99.90;;;;;;5033436;28;20212;-57
2021/09/23 08:28:07;;;;;;;7.30;3.00;;;17.40;99.90;;;;;;5032984;28;20206;-59
2021/09/23 08:30:35;;;;;;;4.35;3.38;;;17.50;99.90;;;;;;5032901;28;20264;-56
2021/09/23 08:33:02;;;;;;;5.70;3.38;;;17.60;99.90;;;;;;5032733;28;20583;-57
2021/09/23 08:35:29;;;;;;;4.65;3.28;;;17.60;99.90;;;;;;5033232;28;20214;-57
2021/09/23 08:37:56;;;;;;;8.48;3.47;;;17.70;99.90;;;;;;5033107;28;20264;-57
2021/09/23 08:40:23;;;;;;;2.90;2.65;;;17.70;99.90;;;;;;5033011;28;20223;-56
2021/09/23 08:42:49;;;;;;;3.97;2.75;;;17.80;99.90;;;;;;5033043;28;20245;-58
2021/09/23 08:45:18;;;;;;;5.07;2.87;;;17.80;99.90;;;;;;5032686;28;20237;-56
2021/09/23 08:47:46;;;;;;;4.63;2.97;;;17.90;99.90;;;;;;5032602;28;20210;-57
2021/09/23 08:50:15;;;;;;;6.25;3.13;;;17.90;99.90;;;;;;5032968;28;20226;-57
2021/09/23 08:52:42;;;;;;;3.70;2.93;;;17.80;99.90;;;;;;5032954;28;20264;-58
2021/09/23 08:55:20;;;;;;;3.93;2.77;;;17.90;99.90;;;;;;5032833;28;20214;-57
2021/09/23 08:57:47;;;;;;;4.28;2.90;;;17.90;99.90;;;;;;5032930;28;20213;-56
2021/09/23 09:00:15;;;;;;;5.13;2.90;;;17.80;99.90;;;;;;5032559;28;20366;-56
2021/09/23 09:02:42;;;;;;;5.37;3.00;;;17.70;99.90;;;;;;5032422;28;20313;-57
2021/09/23 09:05:17;;;;;;;3.67;2.80;;;17.80;99.90;;;;;;5032406;28;20621;-59
2021/09/23 09:07:44;;;;;;;4.10;2.97;;;17.70;99.90;;;;;;5032345;28;20298;-57
2021/09/23 09:10:11;;;;;;;4.00;2.90;;;17.70;99.90;;;;;;5032173;28;20234;-59
2021/09/23 09:12:39;;;;;;;4.18;3.03;;;17.80;99.90;;;;;;5032118;28;20205;-59
2021/09/23 09:15:08;;;;;;;5.60;2.80;;;17.90;99.90;;;;;;5031470;28;20221;-59
2021/09/23 09:17:36;;;;;;;4.15;2.60;;;18.00;99.90;;;;;;5032264;28;20216;-58
2021/09/23 09:20:05;;;;;;;5.00;3.00;;;18.10;99.90;;;;;;5032003;28;20245;-59
2021/09/23 09:22:35;;;;;;;2.50;2.30;;;18.20;99.90;;;;;;5032240;28;20213;-60
2021/09/23 09:25:08;;;;;;;7.47;2.88;;;18.20;99.90;;;;;;5032446;28;20206;-59
2021/09/23 09:27:37;;;;;;;3.80;2.45;;;18.30;99.90;;;;;;5032219;28;20203;-59
2021/09/23 09:30:08;;;;;;;3.75;2.50;;;18.40;99.90;;;;;;5031930;28;20226;-60
2021/09/23 09:32:37;;;;;;;5.05;2.47;;;18.50;99.90;;;;;;5032426;28;20202;-59
2021/09/23 09:35:05;;;;;;;4.63;2.90;;;18.60;99.90;;;;;;5031623;28;20213;-59
2021/09/23 09:37:33;;;;;;;4.20;2.40;;;18.70;99.90;;;;;;5031659;28;20217;-59
2021/09/23 09:40:01;;;;;;;4.93;2.60;;;18.80;99.90;;;;;;5031987;28;20230;-60
2021/09/23 09:42:28;;;;;;;6.97;2.78;;;18.90;99.90;;;;;;5032031;28;20221;-60
2021/09/23 09:44:55;;;;;;;4.68;2.58;;;18.80;99.90;;;;;;5031771;28;20206;-59
2021/09/23 09:47:33;;;;;;;4.03;2.47;;;18.90;99.90;;;;;;5031808;28;20212;-58
2021/09/23 09:50:10;;;;;;;4.72;2.63;;;18.90;99.90;;;;;;5032070;28;20317;-59
2021/09/23 09:52:39;;;;;;;4.72;2.50;;;19.10;99.90;;;;;;5031872;28;20205;-59
2021/09/23 09:55:09;;;;;;;2.85;2.20;;;19.20;99.90;;;;;;5031935;28;20217;-60
2021/09/23 09:57:44;;;;;;;3.65;2.15;;;19.30;99.90;;;;;;5031781;28;20202;-60
2021/09/23 10:00:12;;;;;;;2.63;2.20;;;19.40;99.90;;;;;;5031510;28;20232;-59
2021/09/23 10:02:42;;;;;;;4.25;2.38;;;19.60;99.90;;;;;;5031553;28;20210;-59
2021/09/23 10:05:09;;;;;;;5.43;2.00;;;19.70;99.90;;;;;;5032214;28;20236;-59
2021/09/23 10:07:39;;;;;;;3.15;2.10;;;19.80;99.90;;;;;;5031492;28;20213;-59
2021/09/23 10:10:07;;;;;;;3.65;1.92;;;19.80;99.90;;;;;;5063363;22;20237;-64
2021/09/23 10:12:35;;;;;;;3.03;2.45;;;19.90;99.90;;;;;;5051809;28;20209;-64
2021/09/23 10:15:02;;;;;;;4.47;2.97;;;20.10;99.90;;;;;;5051558;28;20243;-64
2021/09/23 10:17:30;;;;;;;4.10;2.40;;;20.20;99.90;;;;;;5050987;28;20205;-62
2021/09/23 10:19:58;;;;;;;3.17;2.00;;;20.20;99.90;;;;;;5051052;28;20287;-63
2021/09/23 10:22:25;;;;;;;3.75;2.35;;;20.10;99.90;;;;;;5050894;28;20292;-63
2021/09/23 10:24:56;;;;;;;3.92;2.15;;;20.20;99.90;;;;;;5050639;28;20723;-65
2021/09/23 10:30:10;;;;;;;3.55;2.53;;;20.50;99.90;;;;;;5050620;28;20228;-63
2021/09/23 10:32:37;;;;;;;3.58;2.40;;;20.70;99.90;;;;;;5050629;28;20697;-63
2021/09/23 10:35:05;;;;;;;8.00;3.50;;;20.90;99.90;;;;;;5050761;28;20205;-63
2021/09/23 10:37:32;;;;;;;4.55;2.20;;;20.90;99.90;;;;;;5050926;28;20799;-63
2021/09/23 10:40:01;;;;;;;3.13;1.80;;;21.00;99.30;;;;;;5050351;28;20320;-64
2021/09/23 10:42:28;;;;;;;4.78;2.20;;;21.00;98.30;;;;;;5050865;28;20291;-64
2021/09/23 10:44:56;;;;;;;4.78;2.08;;;21.10;98.00;;;;;;5050363;28;20236;-64
2021/09/23 10:47:28;;;;;;;2.65;2.13;;;21.20;97.80;;;;;;5050552;28;20637;-64
2021/09/23 10:49:55;;;;;;;3.00;1.90;;;21.30;97.10;;;;;;5049850;28;20235;-63
2021/09/23 10:52:25;;;;;;;3.35;1.75;;;21.40;97.00;;;;;;5050458;28;20206;-63
2021/09/23 10:54:53;;;;;;;6.30;2.30;;;21.50;96.90;;;;;;5050487;28;20212;-62
2021/09/23 10:57:22;;;;;;;6.18;2.15;;;21.60;96.80;;;;;;5050510;28;20216;-62
2021/09/23 10:59:50;;;;;;;3.17;1.90;;;21.60;96.70;;;;;;5049848;28;20569;-63
2021/09/23 11:02:22;;;;;;;3.40;2.10;;;21.70;97.00;;;;;;5050518;28;20267;-63
2021/09/23 11:04:50;;;;;;;3.53;2.03;;;21.80;96.70;;;;;;5050613;28;20236;-63
2021/09/23 11:07:18;;;;;;;5.95;2.05;;;21.90;96.60;;;;;;5050178;28;20205;-63
2021/09/23 11:10:05;;;;;;;2.67;2.00;;;22.00;96.30;;;;;;5050192;28;20232;-63
2021/09/23 11:12:34;;;;;;;2.85;2.20;;;22.10;95.90;;;;;;5050886;28;20209;-64
2021/09/23 11:15:02;;;;;;;3.95;2.10;;;22.10;95.90;;;;;;5050102;28;20205;-64
2021/09/23 11:17:30;;;;;;;4.63;2.35;;;22.20;95.70;;;;;;5050409;28;20201;-64
2021/09/23 11:19:59;;;;;;;5.72;2.70;;;22.30;95.90;;;;;;5050460;28;20237;-63
2021/09/23 11:22:34;;;;;;;5.28;3.00;;;22.30;96.10;;;;;;5050641;28;20213;-63
2021/09/23 11:25:03;;;;;;;4.63;2.10;;;22.40;96.30;;;;;;5050114;28;20231;-64
2021/09/23 11:27:31;;;;;;;5.50;2.15;;;22.50;95.90;;;;;;5050467;28;20201;-63
2021/09/23 11:29:59;;;;;;;4.55;2.13;;;22.40;96.00;;;;;;5050385;28;20233;-63
2021/09/23 11:32:25;;;;;;;2.75;2.10;;;22.50;96.20;;;;;;5050533;28;20214;-63
2021/09/23 11:35:00;;;;;;;6.43;2.55;;;22.60;96.10;;;;;;5050203;28;20389;-63
2021/09/23 11:37:32;;;;;;;3.28;2.30;;;22.60;96.20;;;;;;5051638;28;20580;-63
2021/09/23 11:40:00;;;;;;;2.17;1.83;;;22.60;95.80;;;;;;5054167;28;20232;-65
2021/09/23 11:42:31;;;;;;;5.22;2.20;;;22.60;95.80;;;;;;5053848;28;20209;-62
2021/09/23 11:45:08;;;;;;;4.45;2.40;;;22.70;95.80;;;;;;5054107;28;20232;-63
2021/09/23 11:47:44;;;;;;;4.05;2.33;;;22.60;95.80;;;;;;5054164;28;20205;-63
2021/09/23 11:50:11;;;;;;;3.55;2.20;;;22.50;96.00;;;;;;5053898;28;20232;-61
2021/09/23 11:52:39;;;;;;;3.72;2.60;;;22.40;96.10;;;;;;5053698;28;20205;-61
2021/09/23 11:55:07;;;;;;;4.35;2.58;;;22.40;96.20;;;;;;5053433;28;20571;-61
2021/09/23 11:57:34;;;;;;;2.90;2.17;;;22.50;95.70;;;;;;5054091;28;20579;-62
2021/09/23 12:00:04;;;;;;;5.63;2.72;;;22.60;95.60;;;;;;5053673;28;20225;-62
2021/09/23 12:02:32;;;;;;;3.72;2.53;;;22.80;95.90;;;;;;5053442;28;20201;-61
2021/09/23 12:05:00;;;;;;;4.95;2.58;;;23.00;94.90;;;;;;5053401;28;20256;-61
2021/09/23 12:07:28;;;;;;;3.83;2.42;;;23.10;94.40;;;;;;5053344;28;20206;-62
2021/09/23 12:10:01;;;;;;;3.05;2.10;;;23.00;95.10;;;;;;5052937;28;20272;-61
2021/09/23 12:12:29;;;;;;;4.95;2.45;;;23.00;95.10;;;;;;5053282;28;20680;-62
2021/09/23 12:14:55;;;;;;;3.10;2.15;;;23.10;94.50;;;;;;5053084;28;20233;-61
2021/09/23 12:17:22;;;;;;;4.53;2.38;;;23.30;94.50;;;;;;5053374;28;20206;-61
2021/09/23 12:19:54;;;;;;;2.88;2.38;;;23.40;94.40;;;;;;5053131;28;20225;-61
2021/09/23 12:22:31;;;;;;;5.53;2.25;;;23.30;93.80;;;;;;5053285;28;20205;-61
2021/09/23 12:24:58;;;;;;;3.20;2.20;;;23.20;94.30;;;;;;5052983;28;20669;-61
2021/09/23 12:27:25;;;;;;;3.80;2.80;;;23.20;94.10;;;;;;5053273;28;20220;-61
2021/09/23 12:29:55;;;;;;;4.20;2.50;;;23.30;93.70;;;;;;5053023;28;20332;-61
2021/09/23 12:32:31;;;;;;;2.92;2.40;;;23.30;93.40;;;;;;5053272;28;20213;-61
2021/09/23 12:34:59;;;;;;;3.75;2.25;;;23.30;94.10;;;;;;5052712;28;20240;-61
2021/09/23 12:37:25;;;;;;;3.88;2.50;;;23.50;94.20;;;;;;5053049;28;20205;-61
2021/09/23 12:39:52;;;;;;;3.33;2.25;;;23.60;93.90;;;;;;5053254;28;20229;-61
2021/09/23 12:42:21;;;;;;;4.88;2.38;;;23.70;93.00;;;;;;5053023;28;20209;-62
2021/09/23 12:44:56;;;;;;;7.65;2.28;;;23.80;93.30;;;;;;5052804;28;20205;-61
2021/09/23 12:47:23;;;;;;;2.95;2.35;;;23.80;93.10;;;;;;5052555;28;20209;-61
2021/09/23 12:50:04;;;;;;;5.80;2.30;;;23.90;93.50;;;;;;5051738;28;20221;-61
2021/09/23 12:52:37;;;;;;;3.00;2.40;;;24.10;93.20;;;;;;5052748;28;20201;-61
2021/09/23 12:55:06;;;;;;;3.53;2.50;;;24.20;92.80;;;;;;5052272;28;20659;-62